sensor_id;sensor_type;location;lat;lon;timestamp;P1;durP1;ratioP1;P2;durP2;ratioP2
18720;SDS011;9489;50.948;3.114;2024-01-27T00:01:33;17.85;;;8.95;;
18720;SDS011;9489;50.948;3.114;2024-01-27T00:03:58;14.88;;;8.27;;
18720;SDS011;9489;50.948;3.114;2024-01-27T00:06:24;17.02;;;7.80;;
18720;SDS011;9489;50.948;3.114;2024-01-27T00:08:50;17.10;;;7.47;;
18720;SDS011;9489;50.948;3.114;2024-01-27T00:11:15;12.73;;;7.63;;
18720;SDS011;9489;50.948;3.114;2024-01-27T00:13:41;17.02;;;8.52;;
18720;SDS011;9489;50.948;3.114;2024-01-27T00:16:07;13.27;;;7.72;;
18720;SDS011;9489;50.948;3.114;2024-01-27T00:18:35;14.30;;;8.45;;
18720;SDS011;9489;50.948;3.114;2024-01-27T00:21:02;11.73;;;8.73;;
18720;SDS011;9489;50.948;3.114;2024-01-27T00:23:27;14.43;;;8.00;;
18720;SDS011;9489;50.948;3.114;2024-01-27T00:25:53;16.05;;;8.15;;
18720;SDS011;9489;50.948;3.114;2024-01-27T00:28:19;16.52;;;8.93;;
18720;SDS011;9489;50.948;3.114;2024-01-27T00:30:44;15.05;;;8.05;;
18720;SDS011;9489;50.948;3.114;2024-01-27T00:33:10;18.33;;;7.90;;
18720;SDS011;9489;50.948;3.114;2024-01-27T00:35:36;15.98;;;8.95;;
18720;SDS011;9489;50.948;3.114;2024-01-27T00:38:01;17.15;;;8.00;;
18720;SDS011;9489;50.948;3.114;2024-01-27T00:40:27;12.77;;;7.82;;
18720;SDS011;9489;50.948;3.114;2024-01-27T00:42:53;13.90;;;8.90;;
18720;SDS011;9489;50.948;3.114;2024-01-27T00:45:19;12.88;;;8.35;;
18720;SDS011;9489;50.948;3.114;2024-01-27T00:47:48;12.52;;;7.40;;
18720;SDS011;9489;50.948;3.114;2024-01-27T00:50:14;15.38;;;7.93;;
18720;SDS011;9489;50.948;3.114;2024-01-27T00:52:40;19.90;;;8.32;;
18720;SDS011;9489;50.948;3.114;2024-01-27T00:55:06;12.70;;;8.57;;
18720;SDS011;9489;50.948;3.114;2024-01-27T00:57:32;14.27;;;8.27;;
18720;SDS011;9489;50.948;3.114;2024-01-27T00:59:57;16.02;;;8.68;;
18720;SDS011;9489;50.948;3.114;2024-01-27T01:02:23;16.13;;;8.38;;
18720;SDS011;9489;50.948;3.114;2024-01-27T01:04:49;12.32;;;8.50;;
18720;SDS011;9489;50.948;3.114;2024-01-27T01:07:14;13.55;;;7.50;;
18720;SDS011;9489;50.948;3.114;2024-01-27T01:09:40;12.73;;;7.68;;
18720;SDS011;9489;50.948;3.114;2024-01-27T01:12:06;18.45;;;9.20;;
18720;SDS011;9489;50.948;3.114;2024-01-27T01:14:32;17.52;;;8.45;;
18720;SDS011;9489;50.948;3.114;2024-01-27T01:16:57;13.95;;;8.13;;
18720;SDS011;9489;50.948;3.114;2024-01-27T01:19:23;13.25;;;8.02;;
18720;SDS011;9489;50.948;3.114;2024-01-27T01:21:49;11.85;;;8.10;;
18720;SDS011;9489;50.948;3.114;2024-01-27T01:24:14;16.63;;;8.77;;
18720;SDS011;9489;50.948;3.114;2024-01-27T01:26:40;13.75;;;8.00;;
18720;SDS011;9489;50.948;3.114;2024-01-27T01:29:06;15.43;;;8.73;;
18720;SDS011;9489;50.948;3.114;2024-01-27T01:31:31;16.80;;;8.98;;
18720;SDS011;9489;50.948;3.114;2024-01-27T01:33:57;16.10;;;9.20;;
18720;SDS011;9489;50.948;3.114;2024-01-27T01:36:23;12.77;;;8.45;;
18720;SDS011;9489;50.948;3.114;2024-01-27T01:38:48;13.95;;;9.52;;
18720;SDS011;9489;50.948;3.114;2024-01-27T01:41:14;13.02;;;8.80;;
18720;SDS011;9489;50.948;3.114;2024-01-27T01:43:40;18.13;;;10.02;;
18720;SDS011;9489;50.948;3.114;2024-01-27T01:46:05;17.33;;;9.38;;
18720;SDS011;9489;50.948;3.114;2024-01-27T01:48:31;17.48;;;9.85;;
18720;SDS011;9489;50.948;3.114;2024-01-27T01:50:58;18.27;;;10.10;;
18720;SDS011;9489;50.948;3.114;2024-01-27T01:53:25;15.40;;;10.60;;
18720;SDS011;9489;50.948;3.114;2024-01-27T01:55:51;22.73;;;10.07;;
18720;SDS011;9489;50.948;3.114;2024-01-27T01:58:17;14.82;;;9.27;;
18720;SDS011;9489;50.948;3.114;2024-01-27T02:00:43;14.75;;;9.98;;
18720;SDS011;9489;50.948;3.114;2024-01-27T02:03:12;19.25;;;10.43;;
18720;SDS011;9489;50.948;3.114;2024-01-27T02:05:39;18.02;;;11.20;;
18720;SDS011;9489;50.948;3.114;2024-01-27T02:08:06;12.77;;;9.75;;
18720;SDS011;9489;50.948;3.114;2024-01-27T02:10:32;21.00;;;11.15;;
18720;SDS011;9489;50.948;3.114;2024-01-27T02:13:14;18.50;;;11.70;;
18720;SDS011;9489;50.948;3.114;2024-01-27T02:15:45;19.05;;;10.93;;
18720;SDS011;9489;50.948;3.114;2024-01-27T02:18:11;19.63;;;11.07;;
18720;SDS011;9489;50.948;3.114;2024-01-27T02:20:37;19.63;;;10.43;;
18720;SDS011;9489;50.948;3.114;2024-01-27T02:23:03;20.42;;;10.88;;
18720;SDS011;9489;50.948;3.114;2024-01-27T02:25:30;18.10;;;11.40;;
18720;SDS011;9489;50.948;3.114;2024-01-27T02:27:56;17.52;;;11.93;;
18720;SDS011;9489;50.948;3.114;2024-01-27T02:30:21;21.38;;;11.23;;
18720;SDS011;9489;50.948;3.114;2024-01-27T02:32:47;17.05;;;11.00;;
18720;SDS011;9489;50.948;3.114;2024-01-27T02:35:13;16.17;;;9.65;;
18720;SDS011;9489;50.948;3.114;2024-01-27T02:37:39;18.48;;;11.25;;
18720;SDS011;9489;50.948;3.114;2024-01-27T02:40:06;14.98;;;10.77;;
18720;SDS011;9489;50.948;3.114;2024-01-27T02:42:33;17.30;;;10.90;;
18720;SDS011;9489;50.948;3.114;2024-01-27T02:44:59;20.42;;;11.45;;
18720;SDS011;9489;50.948;3.114;2024-01-27T02:47:24;25.23;;;10.43;;
18720;SDS011;9489;50.948;3.114;2024-01-27T02:49:50;19.23;;;11.02;;
18720;SDS011;9489;50.948;3.114;2024-01-27T02:52:15;18.27;;;11.10;;
18720;SDS011;9489;50.948;3.114;2024-01-27T02:54:41;18.30;;;10.90;;
18720;SDS011;9489;50.948;3.114;2024-01-27T02:57:07;15.02;;;11.07;;
18720;SDS011;9489;50.948;3.114;2024-01-27T02:59:32;16.70;;;10.90;;
18720;SDS011;9489;50.948;3.114;2024-01-27T03:01:58;18.13;;;10.52;;
18720;SDS011;9489;50.948;3.114;2024-01-27T03:04:24;19.60;;;10.85;;
18720;SDS011;9489;50.948;3.114;2024-01-27T03:06:49;16.15;;;10.90;;
18720;SDS011;9489;50.948;3.114;2024-01-27T03:09:15;18.77;;;11.68;;
18720;SDS011;9489;50.948;3.114;2024-01-27T03:11:42;24.60;;;11.75;;
18720;SDS011;9489;50.948;3.114;2024-01-27T03:14:07;16.25;;;11.43;;
18720;SDS011;9489;50.948;3.114;2024-01-27T03:16:33;19.38;;;11.57;;
18720;SDS011;9489;50.948;3.114;2024-01-27T03:18:59;20.13;;;11.98;;
18720;SDS011;9489;50.948;3.114;2024-01-27T03:21:25;21.15;;;11.88;;
18720;SDS011;9489;50.948;3.114;2024-01-27T03:23:50;23.52;;;12.20;;
18720;SDS011;9489;50.948;3.114;2024-01-27T03:26:16;19.20;;;11.23;;
18720;SDS011;9489;50.948;3.114;2024-01-27T03:28:42;15.82;;;10.93;;
18720;SDS011;9489;50.948;3.114;2024-01-27T03:31:07;21.25;;;11.20;;
18720;SDS011;9489;50.948;3.114;2024-01-27T03:33:33;17.48;;;11.68;;
18720;SDS011;9489;50.948;3.114;2024-01-27T03:35:59;20.73;;;11.35;;
18720;SDS011;9489;50.948;3.114;2024-01-27T03:38:24;26.52;;;12.40;;
18720;SDS011;9489;50.948;3.114;2024-01-27T03:40:50;15.98;;;11.23;;
18720;SDS011;9489;50.948;3.114;2024-01-27T03:43:16;21.88;;;10.57;;
18720;SDS011;9489;50.948;3.114;2024-01-27T03:45:41;22.60;;;12.02;;
18720;SDS011;9489;50.948;3.114;2024-01-27T03:48:07;22.00;;;11.32;;
18720;SDS011;9489;50.948;3.114;2024-01-27T03:50:33;20.75;;;11.93;;
18720;SDS011;9489;50.948;3.114;2024-01-27T03:52:58;23.65;;;12.85;;
18720;SDS011;9489;50.948;3.114;2024-01-27T03:55:24;21.50;;;13.05;;
18720;SDS011;9489;50.948;3.114;2024-01-27T03:57:49;23.05;;;13.10;;
18720;SDS011;9489;50.948;3.114;2024-01-27T04:00:15;20.80;;;12.48;;
18720;SDS011;9489;50.948;3.114;2024-01-27T04:02:41;18.48;;;11.98;;
18720;SDS011;9489;50.948;3.114;2024-01-27T04:05:07;22.00;;;12.60;;
18720;SDS011;9489;50.948;3.114;2024-01-27T04:07:33;20.92;;;12.38;;
18720;SDS011;9489;50.948;3.114;2024-01-27T04:09:58;21.15;;;12.65;;
18720;SDS011;9489;50.948;3.114;2024-01-27T04:12:24;21.45;;;13.38;;
18720;SDS011;9489;50.948;3.114;2024-01-27T04:14:50;24.15;;;13.55;;
18720;SDS011;9489;50.948;3.114;2024-01-27T04:17:16;24.88;;;13.13;;
18720;SDS011;9489;50.948;3.114;2024-01-27T04:19:41;25.20;;;13.82;;
18720;SDS011;9489;50.948;3.114;2024-01-27T04:22:07;20.63;;;13.05;;
18720;SDS011;9489;50.948;3.114;2024-01-27T04:24:32;25.25;;;13.40;;
18720;SDS011;9489;50.948;3.114;2024-01-27T04:26:59;29.45;;;14.00;;
18720;SDS011;9489;50.948;3.114;2024-01-27T04:29:24;22.33;;;11.98;;
18720;SDS011;9489;50.948;3.114;2024-01-27T04:31:50;24.92;;;14.32;;
18720;SDS011;9489;50.948;3.114;2024-01-27T04:34:16;17.35;;;11.50;;
18720;SDS011;9489;50.948;3.114;2024-01-27T04:36:41;23.10;;;13.00;;
18720;SDS011;9489;50.948;3.114;2024-01-27T04:39:07;21.92;;;13.90;;
18720;SDS011;9489;50.948;3.114;2024-01-27T04:41:33;21.83;;;13.18;;
18720;SDS011;9489;50.948;3.114;2024-01-27T04:43:58;17.80;;;13.27;;
18720;SDS011;9489;50.948;3.114;2024-01-27T04:46:24;23.88;;;12.55;;
18720;SDS011;9489;50.948;3.114;2024-01-27T04:48:50;23.35;;;13.25;;
18720;SDS011;9489;50.948;3.114;2024-01-27T04:51:16;19.95;;;12.77;;
18720;SDS011;9489;50.948;3.114;2024-01-27T04:53:42;21.33;;;13.15;;
18720;SDS011;9489;50.948;3.114;2024-01-27T04:56:07;18.50;;;12.68;;
18720;SDS011;9489;50.948;3.114;2024-01-27T04:58:34;20.13;;;11.85;;
18720;SDS011;9489;50.948;3.114;2024-01-27T05:01:04;25.42;;;12.98;;
18720;SDS011;9489;50.948;3.114;2024-01-27T05:03:29;24.63;;;13.07;;
18720;SDS011;9489;50.948;3.114;2024-01-27T05:05:55;24.80;;;12.57;;
18720;SDS011;9489;50.948;3.114;2024-01-27T05:08:20;23.60;;;13.77;;
18720;SDS011;9489;50.948;3.114;2024-01-27T05:10:46;19.63;;;13.43;;
18720;SDS011;9489;50.948;3.114;2024-01-27T05:13:12;18.38;;;12.52;;
18720;SDS011;9489;50.948;3.114;2024-01-27T05:15:37;19.70;;;13.18;;
18720;SDS011;9489;50.948;3.114;2024-01-27T05:18:04;19.90;;;12.37;;
18720;SDS011;9489;50.948;3.114;2024-01-27T05:20:29;22.20;;;13.35;;
18720;SDS011;9489;50.948;3.114;2024-01-27T05:22:55;27.33;;;13.60;;
18720;SDS011;9489;50.948;3.114;2024-01-27T05:25:21;25.77;;;13.77;;
18720;SDS011;9489;50.948;3.114;2024-01-27T05:27:46;24.05;;;12.65;;
18720;SDS011;9489;50.948;3.114;2024-01-27T05:30:12;22.65;;;14.02;;
18720;SDS011;9489;50.948;3.114;2024-01-27T05:32:38;26.15;;;14.48;;
18720;SDS011;9489;50.948;3.114;2024-01-27T05:35:03;24.60;;;14.80;;
18720;SDS011;9489;50.948;3.114;2024-01-27T05:37:30;26.08;;;14.60;;
18720;SDS011;9489;50.948;3.114;2024-01-27T05:39:55;26.45;;;15.30;;
18720;SDS011;9489;50.948;3.114;2024-01-27T05:42:21;37.95;;;16.08;;
18720;SDS011;9489;50.948;3.114;2024-01-27T05:44:47;27.45;;;16.48;;
18720;SDS011;9489;50.948;3.114;2024-01-27T05:47:12;27.80;;;16.92;;
18720;SDS011;9489;50.948;3.114;2024-01-27T05:49:38;24.70;;;15.60;;
18720;SDS011;9489;50.948;3.114;2024-01-27T05:52:04;26.63;;;16.30;;
18720;SDS011;9489;50.948;3.114;2024-01-27T05:54:30;23.00;;;15.93;;
18720;SDS011;9489;50.948;3.114;2024-01-27T05:56:56;35.90;;;15.77;;
18720;SDS011;9489;50.948;3.114;2024-01-27T05:59:22;27.60;;;17.63;;
18720;SDS011;9489;50.948;3.114;2024-01-27T06:01:47;24.23;;;15.63;;
18720;SDS011;9489;50.948;3.114;2024-01-27T06:04:13;30.85;;;16.52;;
18720;SDS011;9489;50.948;3.114;2024-01-27T06:06:39;27.75;;;18.17;;
18720;SDS011;9489;50.948;3.114;2024-01-27T06:09:04;29.40;;;18.00;;
18720;SDS011;9489;50.948;3.114;2024-01-27T06:11:30;33.38;;;17.35;;
18720;SDS011;9489;50.948;3.114;2024-01-27T06:13:56;28.80;;;17.13;;
18720;SDS011;9489;50.948;3.114;2024-01-27T06:16:23;29.60;;;17.15;;
18720;SDS011;9489;50.948;3.114;2024-01-27T06:18:49;35.55;;;18.17;;
18720;SDS011;9489;50.948;3.114;2024-01-27T06:21:14;29.23;;;17.63;;
18720;SDS011;9489;50.948;3.114;2024-01-27T06:23:40;28.65;;;16.40;;
18720;SDS011;9489;50.948;3.114;2024-01-27T06:26:06;27.65;;;17.15;;
18720;SDS011;9489;50.948;3.114;2024-01-27T06:28:32;29.33;;;17.15;;
18720;SDS011;9489;50.948;3.114;2024-01-27T06:30:59;30.15;;;17.52;;
18720;SDS011;9489;50.948;3.114;2024-01-27T06:33:25;33.97;;;19.05;;
18720;SDS011;9489;50.948;3.114;2024-01-27T06:35:51;26.98;;;18.02;;
18720;SDS011;9489;50.948;3.114;2024-01-27T06:38:17;34.75;;;18.90;;
18720;SDS011;9489;50.948;3.114;2024-01-27T06:40:42;35.65;;;18.40;;
18720;SDS011;9489;50.948;3.114;2024-01-27T06:43:09;26.08;;;18.48;;
18720;SDS011;9489;50.948;3.114;2024-01-27T06:45:37;31.10;;;19.00;;
18720;SDS011;9489;50.948;3.114;2024-01-27T06:48:03;32.30;;;17.50;;
18720;SDS011;9489;50.948;3.114;2024-01-27T06:50:29;30.20;;;17.95;;
18720;SDS011;9489;50.948;3.114;2024-01-27T06:52:55;30.73;;;17.25;;
18720;SDS011;9489;50.948;3.114;2024-01-27T06:55:21;27.15;;;16.08;;
18720;SDS011;9489;50.948;3.114;2024-01-27T06:57:46;29.83;;;16.90;;
18720;SDS011;9489;50.948;3.114;2024-01-27T07:00:12;28.20;;;17.30;;
18720;SDS011;9489;50.948;3.114;2024-01-27T07:02:41;27.67;;;15.65;;
18720;SDS011;9489;50.948;3.114;2024-01-27T07:05:08;34.75;;;18.33;;
18720;SDS011;9489;50.948;3.114;2024-01-27T07:07:34;24.50;;;16.08;;
18720;SDS011;9489;50.948;3.114;2024-01-27T07:10:00;28.98;;;17.33;;
18720;SDS011;9489;50.948;3.114;2024-01-27T07:12:26;27.45;;;16.50;;
18720;SDS011;9489;50.948;3.114;2024-01-27T07:14:52;36.72;;;19.23;;
18720;SDS011;9489;50.948;3.114;2024-01-27T07:17:19;34.17;;;19.60;;
18720;SDS011;9489;50.948;3.114;2024-01-27T07:19:45;41.47;;;21.17;;
18720;SDS011;9489;50.948;3.114;2024-01-27T07:22:11;36.20;;;23.33;;
18720;SDS011;9489;50.948;3.114;2024-01-27T07:24:37;42.17;;;22.37;;
18720;SDS011;9489;50.948;3.114;2024-01-27T07:27:04;40.70;;;24.10;;
18720;SDS011;9489;50.948;3.114;2024-01-27T07:29:30;38.22;;;23.85;;
18720;SDS011;9489;50.948;3.114;2024-01-27T07:31:55;36.33;;;21.38;;
18720;SDS011;9489;50.948;3.114;2024-01-27T07:34:21;33.30;;;20.93;;
18720;SDS011;9489;50.948;3.114;2024-01-27T07:36:47;46.15;;;23.73;;
18720;SDS011;9489;50.948;3.114;2024-01-27T07:39:15;42.35;;;21.92;;
18720;SDS011;9489;50.948;3.114;2024-01-27T07:41:41;34.97;;;23.35;;
18720;SDS011;9489;50.948;3.114;2024-01-27T07:44:13;40.33;;;21.55;;
18720;SDS011;9489;50.948;3.114;2024-01-27T07:46:40;33.05;;;22.40;;
18720;SDS011;9489;50.948;3.114;2024-01-27T07:49:06;39.88;;;22.90;;
18720;SDS011;9489;50.948;3.114;2024-01-27T07:51:32;38.00;;;23.08;;
18720;SDS011;9489;50.948;3.114;2024-01-27T07:53:59;39.00;;;23.55;;
18720;SDS011;9489;50.948;3.114;2024-01-27T07:56:25;38.55;;;23.67;;
18720;SDS011;9489;50.948;3.114;2024-01-27T07:58:51;37.42;;;23.25;;
18720;SDS011;9489;50.948;3.114;2024-01-27T08:01:17;40.35;;;22.48;;
18720;SDS011;9489;50.948;3.114;2024-01-27T08:03:43;36.50;;;21.38;;
18720;SDS011;9489;50.948;3.114;2024-01-27T08:06:14;38.08;;;22.92;;
18720;SDS011;9489;50.948;3.114;2024-01-27T08:08:51;38.50;;;20.95;;
18720;SDS011;9489;50.948;3.114;2024-01-27T08:11:17;33.95;;;19.58;;
18720;SDS011;9489;50.948;3.114;2024-01-27T08:13:43;29.85;;;17.90;;
18720;SDS011;9489;50.948;3.114;2024-01-27T08:16:09;30.35;;;18.55;;
18720;SDS011;9489;50.948;3.114;2024-01-27T08:18:37;28.05;;;17.00;;
18720;SDS011;9489;50.948;3.114;2024-01-27T08:21:04;26.98;;;17.25;;
18720;SDS011;9489;50.948;3.114;2024-01-27T08:23:29;31.38;;;17.02;;
18720;SDS011;9489;50.948;3.114;2024-01-27T08:25:55;25.08;;;17.75;;
18720;SDS011;9489;50.948;3.114;2024-01-27T08:28:21;30.70;;;17.60;;
18720;SDS011;9489;50.948;3.114;2024-01-27T08:30:47;23.42;;;15.55;;
18720;SDS011;9489;50.948;3.114;2024-01-27T08:33:13;32.67;;;16.77;;
18720;SDS011;9489;50.948;3.114;2024-01-27T08:35:39;28.55;;;15.05;;
18720;SDS011;9489;50.948;3.114;2024-01-27T08:38:05;26.85;;;14.85;;
18720;SDS011;9489;50.948;3.114;2024-01-27T08:40:32;24.40;;;15.07;;
18720;SDS011;9489;50.948;3.114;2024-01-27T08:42:57;29.67;;;16.02;;
18720;SDS011;9489;50.948;3.114;2024-01-27T08:45:23;26.45;;;15.52;;
18720;SDS011;9489;50.948;3.114;2024-01-27T08:47:50;34.33;;;16.15;;
18720;SDS011;9489;50.948;3.114;2024-01-27T08:50:16;23.77;;;14.82;;
18720;SDS011;9489;50.948;3.114;2024-01-27T08:52:42;26.40;;;14.73;;
18720;SDS011;9489;50.948;3.114;2024-01-27T08:55:07;26.20;;;15.00;;
18720;SDS011;9489;50.948;3.114;2024-01-27T08:57:33;22.67;;;13.00;;
18720;SDS011;9489;50.948;3.114;2024-01-27T08:59:59;22.40;;;13.10;;
18720;SDS011;9489;50.948;3.114;2024-01-27T09:02:24;17.42;;;12.52;;
18720;SDS011;9489;50.948;3.114;2024-01-27T09:04:50;15.57;;;11.30;;
18720;SDS011;9489;50.948;3.114;2024-01-27T09:07:16;18.27;;;10.20;;
18720;SDS011;9489;50.948;3.114;2024-01-27T09:09:42;18.67;;;10.40;;
18720;SDS011;9489;50.948;3.114;2024-01-27T09:12:08;16.08;;;9.93;;
18720;SDS011;9489;50.948;3.114;2024-01-27T09:14:34;18.45;;;8.95;;
18720;SDS011;9489;50.948;3.114;2024-01-27T09:17:02;14.93;;;9.13;;
18720;SDS011;9489;50.948;3.114;2024-01-27T09:19:28;15.07;;;9.48;;
18720;SDS011;9489;50.948;3.114;2024-01-27T09:21:54;19.42;;;10.57;;
18720;SDS011;9489;50.948;3.114;2024-01-27T09:24:19;16.83;;;9.57;;
18720;SDS011;9489;50.948;3.114;2024-01-27T09:26:45;15.23;;;8.55;;
18720;SDS011;9489;50.948;3.114;2024-01-27T09:29:11;17.65;;;9.48;;
18720;SDS011;9489;50.948;3.114;2024-01-27T09:31:37;16.77;;;10.73;;
18720;SDS011;9489;50.948;3.114;2024-01-27T09:34:03;15.35;;;9.00;;
18720;SDS011;9489;50.948;3.114;2024-01-27T09:36:29;16.90;;;9.65;;
18720;SDS011;9489;50.948;3.114;2024-01-27T09:38:54;15.52;;;8.85;;
18720;SDS011;9489;50.948;3.114;2024-01-27T09:41:20;13.85;;;8.30;;
18720;SDS011;9489;50.948;3.114;2024-01-27T09:43:46;16.45;;;9.20;;
18720;SDS011;9489;50.948;3.114;2024-01-27T09:46:15;14.23;;;9.45;;
18720;SDS011;9489;50.948;3.114;2024-01-27T09:48:41;22.42;;;10.48;;
18720;SDS011;9489;50.948;3.114;2024-01-27T09:51:08;16.08;;;9.90;;
18720;SDS011;9489;50.948;3.114;2024-01-27T09:53:35;16.23;;;9.05;;
18720;SDS011;9489;50.948;3.114;2024-01-27T09:56:01;17.60;;;9.32;;
18720;SDS011;9489;50.948;3.114;2024-01-27T09:58:29;14.52;;;9.18;;
18720;SDS011;9489;50.948;3.114;2024-01-27T10:00:58;14.63;;;9.70;;
18720;SDS011;9489;50.948;3.114;2024-01-27T10:03:25;16.52;;;9.68;;
18720;SDS011;9489;50.948;3.114;2024-01-27T10:05:55;15.23;;;8.68;;
18720;SDS011;9489;50.948;3.114;2024-01-27T10:08:22;13.65;;;8.52;;
18720;SDS011;9489;50.948;3.114;2024-01-27T10:10:53;15.02;;;8.65;;
18720;SDS011;9489;50.948;3.114;2024-01-27T10:13:22;14.55;;;8.45;;
18720;SDS011;9489;50.948;3.114;2024-01-27T10:18:29;12.07;;;8.05;;
18720;SDS011;9489;50.948;3.114;2024-01-27T10:20:56;12.50;;;7.65;;
18720;SDS011;9489;50.948;3.114;2024-01-27T10:23:21;16.25;;;8.57;;
18720;SDS011;9489;50.948;3.114;2024-01-27T10:25:47;16.05;;;8.00;;
18720;SDS011;9489;50.948;3.114;2024-01-27T10:28:13;16.98;;;9.38;;
18720;SDS011;9489;50.948;3.114;2024-01-27T10:30:39;19.13;;;8.95;;
18720;SDS011;9489;50.948;3.114;2024-01-27T10:33:07;11.10;;;8.48;;
18720;SDS011;9489;50.948;3.114;2024-01-27T10:35:35;12.00;;;8.57;;
18720;SDS011;9489;50.948;3.114;2024-01-27T10:38:01;16.05;;;8.13;;
18720;SDS011;9489;50.948;3.114;2024-01-27T10:40:27;12.65;;;7.95;;
18720;SDS011;9489;50.948;3.114;2024-01-27T10:45:43;15.32;;;8.57;;
18720;SDS011;9489;50.948;3.114;2024-01-27T10:48:10;15.02;;;8.45;;
18720;SDS011;9489;50.948;3.114;2024-01-27T10:50:37;14.30;;;8.43;;
18720;SDS011;9489;50.948;3.114;2024-01-27T10:53:04;16.23;;;7.90;;
18720;SDS011;9489;50.948;3.114;2024-01-27T10:55:34;16.23;;;8.40;;
18720;SDS011;9489;50.948;3.114;2024-01-27T10:58:03;14.57;;;8.55;;
18720;SDS011;9489;50.948;3.114;2024-01-27T11:00:29;60.58;;;48.85;;
18720;SDS011;9489;50.948;3.114;2024-01-27T11:02:58;12.65;;;8.45;;
18720;SDS011;9489;50.948;3.114;2024-01-27T11:05:27;13.63;;;8.35;;
18720;SDS011;9489;50.948;3.114;2024-01-27T11:07:57;15.27;;;7.43;;
18720;SDS011;9489;50.948;3.114;2024-01-27T11:10:24;11.82;;;7.30;;
18720;SDS011;9489;50.948;3.114;2024-01-27T11:12:51;17.58;;;8.40;;
18720;SDS011;9489;50.948;3.114;2024-01-27T11:15:20;17.98;;;8.18;;
18720;SDS011;9489;50.948;3.114;2024-01-27T11:17:46;14.90;;;8.00;;
18720;SDS011;9489;50.948;3.114;2024-01-27T11:20:12;14.07;;;7.97;;
18720;SDS011;9489;50.948;3.114;2024-01-27T11:22:38;15.30;;;7.80;;
18720;SDS011;9489;50.948;3.114;2024-01-27T11:27:38;13.02;;;6.80;;
18720;SDS011;9489;50.948;3.114;2024-01-27T11:30:05;11.82;;;6.50;;
18720;SDS011;9489;50.948;3.114;2024-01-27T11:32:32;12.10;;;5.65;;
18720;SDS011;9489;50.948;3.114;2024-01-27T11:35:00;16.13;;;7.07;;
18720;SDS011;9489;50.948;3.114;2024-01-27T11:37:30;11.55;;;6.25;;
18720;SDS011;9489;50.948;3.114;2024-01-27T11:40:05;10.23;;;5.00;;
18720;SDS011;9489;50.948;3.114;2024-01-27T11:42:32;10.20;;;5.82;;
18720;SDS011;9489;50.948;3.114;2024-01-27T11:44:58;12.50;;;5.80;;
18720;SDS011;9489;50.948;3.114;2024-01-27T11:47:25;12.73;;;6.28;;
18720;SDS011;9489;50.948;3.114;2024-01-27T11:49:55;11.45;;;6.03;;
18720;SDS011;9489;50.948;3.114;2024-01-27T11:52:22;15.02;;;6.05;;
18720;SDS011;9489;50.948;3.114;2024-01-27T11:54:55;13.27;;;6.13;;
18720;SDS011;9489;50.948;3.114;2024-01-27T11:57:21;11.88;;;5.95;;
18720;SDS011;9489;50.948;3.114;2024-01-27T11:59:47;13.50;;;5.95;;
18720;SDS011;9489;50.948;3.114;2024-01-27T12:02:13;10.27;;;5.70;;
18720;SDS011;9489;50.948;3.114;2024-01-27T12:04:39;9.73;;;5.82;;
18720;SDS011;9489;50.948;3.114;2024-01-27T12:07:05;10.73;;;6.00;;
18720;SDS011;9489;50.948;3.114;2024-01-27T12:09:32;12.43;;;5.80;;
18720;SDS011;9489;50.948;3.114;2024-01-27T12:11:57;10.27;;;4.57;;
18720;SDS011;9489;50.948;3.114;2024-01-27T12:14:23;11.23;;;5.88;;
18720;SDS011;9489;50.948;3.114;2024-01-27T12:16:49;12.32;;;5.78;;
18720;SDS011;9489;50.948;3.114;2024-01-27T12:19:15;9.38;;;5.68;;
18720;SDS011;9489;50.948;3.114;2024-01-27T12:21:48;10.90;;;5.05;;
18720;SDS011;9489;50.948;3.114;2024-01-27T12:24:16;15.77;;;5.95;;
18720;SDS011;9489;50.948;3.114;2024-01-27T12:26:43;13.07;;;6.35;;
18720;SDS011;9489;50.948;3.114;2024-01-27T12:29:09;13.63;;;5.65;;
18720;SDS011;9489;50.948;3.114;2024-01-27T12:31:36;13.90;;;5.72;;
18720;SDS011;9489;50.948;3.114;2024-01-27T12:34:02;12.05;;;5.30;;
18720;SDS011;9489;50.948;3.114;2024-01-27T12:36:28;12.15;;;5.28;;
18720;SDS011;9489;50.948;3.114;2024-01-27T12:38:55;10.05;;;5.13;;
18720;SDS011;9489;50.948;3.114;2024-01-27T12:41:30;12.45;;;5.45;;
18720;SDS011;9489;50.948;3.114;2024-01-27T12:43:58;14.05;;;5.43;;
18720;SDS011;9489;50.948;3.114;2024-01-27T12:46:24;14.90;;;5.85;;
18720;SDS011;9489;50.948;3.114;2024-01-27T12:48:50;14.85;;;5.03;;
18720;SDS011;9489;50.948;3.114;2024-01-27T12:51:16;14.70;;;5.68;;
18720;SDS011;9489;50.948;3.114;2024-01-27T12:53:42;10.45;;;5.13;;
18720;SDS011;9489;50.948;3.114;2024-01-27T12:56:13;17.42;;;5.80;;
18720;SDS011;9489;50.948;3.114;2024-01-27T12:58:40;12.65;;;5.57;;
18720;SDS011;9489;50.948;3.114;2024-01-27T13:01:07;16.73;;;5.28;;
18720;SDS011;9489;50.948;3.114;2024-01-27T13:03:33;12.02;;;4.72;;
18720;SDS011;9489;50.948;3.114;2024-01-27T13:06:00;14.80;;;6.22;;
18720;SDS011;9489;50.948;3.114;2024-01-27T13:08:26;12.68;;;5.45;;
18720;SDS011;9489;50.948;3.114;2024-01-27T13:10:52;16.10;;;5.68;;
18720;SDS011;9489;50.948;3.114;2024-01-27T13:13:18;12.45;;;5.80;;
18720;SDS011;9489;50.948;3.114;2024-01-27T13:15:44;10.50;;;4.88;;
18720;SDS011;9489;50.948;3.114;2024-01-27T13:18:10;10.60;;;5.22;;
18720;SDS011;9489;50.948;3.114;2024-01-27T13:20:36;13.13;;;5.85;;
18720;SDS011;9489;50.948;3.114;2024-01-27T13:23:02;15.23;;;5.75;;
18720;SDS011;9489;50.948;3.114;2024-01-27T13:25:28;16.00;;;5.22;;
18720;SDS011;9489;50.948;3.114;2024-01-27T13:27:54;16.25;;;5.93;;
18720;SDS011;9489;50.948;3.114;2024-01-27T13:30:20;14.00;;;4.95;;
18720;SDS011;9489;50.948;3.114;2024-01-27T13:32:46;14.88;;;5.72;;
18720;SDS011;9489;50.948;3.114;2024-01-27T13:35:12;16.73;;;6.13;;
18720;SDS011;9489;50.948;3.114;2024-01-27T13:37:37;16.25;;;6.00;;
18720;SDS011;9489;50.948;3.114;2024-01-27T13:40:04;11.75;;;4.85;;
18720;SDS011;9489;50.948;3.114;2024-01-27T13:42:32;13.05;;;5.00;;
18720;SDS011;9489;50.948;3.114;2024-01-27T13:44:58;14.55;;;5.40;;
18720;SDS011;9489;50.948;3.114;2024-01-27T13:47:24;16.45;;;5.78;;
18720;SDS011;9489;50.948;3.114;2024-01-27T13:49:50;14.43;;;5.50;;
18720;SDS011;9489;50.948;3.114;2024-01-27T13:52:15;13.85;;;6.20;;
18720;SDS011;9489;50.948;3.114;2024-01-27T13:54:41;14.50;;;5.82;;
18720;SDS011;9489;50.948;3.114;2024-01-27T13:57:07;10.98;;;4.78;;
18720;SDS011;9489;50.948;3.114;2024-01-27T13:59:35;10.63;;;5.28;;
18720;SDS011;9489;50.948;3.114;2024-01-27T14:02:01;14.65;;;5.20;;
18720;SDS011;9489;50.948;3.114;2024-01-27T14:04:27;14.57;;;5.75;;
18720;SDS011;9489;50.948;3.114;2024-01-27T14:06:53;14.55;;;5.75;;
18720;SDS011;9489;50.948;3.114;2024-01-27T14:09:23;13.73;;;5.30;;
18720;SDS011;9489;50.948;3.114;2024-01-27T14:11:49;13.55;;;6.07;;
18720;SDS011;9489;50.948;3.114;2024-01-27T14:14:14;13.02;;;5.05;;
18720;SDS011;9489;50.948;3.114;2024-01-27T14:16:43;9.68;;;4.47;;
18720;SDS011;9489;50.948;3.114;2024-01-27T14:19:09;12.65;;;5.50;;
18720;SDS011;9489;50.948;3.114;2024-01-27T14:21:36;10.45;;;5.05;;
18720;SDS011;9489;50.948;3.114;2024-01-27T14:24:02;11.93;;;4.75;;
18720;SDS011;9489;50.948;3.114;2024-01-27T14:26:30;11.50;;;4.88;;
18720;SDS011;9489;50.948;3.114;2024-01-27T14:28:56;11.40;;;4.55;;
18720;SDS011;9489;50.948;3.114;2024-01-27T14:31:22;16.15;;;5.35;;
18720;SDS011;9489;50.948;3.114;2024-01-27T14:33:48;12.63;;;4.32;;
18720;SDS011;9489;50.948;3.114;2024-01-27T14:36:14;13.45;;;4.55;;
18720;SDS011;9489;50.948;3.114;2024-01-27T14:38:40;11.43;;;4.60;;
18720;SDS011;9489;50.948;3.114;2024-01-27T14:41:09;13.85;;;4.97;;
18720;SDS011;9489;50.948;3.114;2024-01-27T14:43:38;11.73;;;4.65;;